PWSweather.com
Personal Weather Stations
Station Observations
PWSLORIS
The Farm At Fox Bay, Loris, SC 29569

The Farm At Fox BayLoris, SC 29569

Lat: 34.067097, Lon: -78.86907

Elevation: 108

Station Type: Davis Vantage Pro2 with 24 hr. FARS and solar

http://www.lorisweather.com

High Low Average
Temperature 86.8°F30.4°C 73.6°F23.1°C 78.4°F25.8°C
Dew Point 77.6°F25.3°C 72.6°F22.6°C 74.7°F23.7°C
Winds 4.6 mph 7.4 kmh Calm Calm 1.0 mph S1.6 kmh S
Wind Gusts 6.9 mph11.1 kmh -- 1.0 mph1.6 kmh
Humidity 98% 71% 89%
Pressure 30.07 in1018.3 mb 29.96 in1014.6 mb -
Precipitation 0.11 in2.8 mm - -
Hour Temp Dew Point Humidity Winds Wind Gusts Pressure Precip Precip Rate Daily Precip Total
12:00 AM 75.3°F24.1°C 73.5°F23.1°C 94% Calm Calm -- 30.05 in1017.6 mb - 0.00 in0.0 mm 0.00 in0.0 mm
12:15 AM 75.2°F24.0°C 73.7°F23.2°C 95% Calm Calm -- 30.06 in1017.9 mb - 0.00 in0.0 mm 0.00 in0.0 mm
12:30 AM 75.1°F23.9°C 73.6°F23.1°C 95% Calm Calm -- 30.05 in1017.6 mb - 0.00 in0.0 mm 0.00 in0.0 mm
12:45 AM 75.0°F23.9°C 73.5°F23.1°C 95% Calm Calm -- 30.05 in1017.6 mb - 0.00 in0.0 mm 0.00 in0.0 mm
01:00 AM 74.8°F23.8°C 73.3°F22.9°C 95% Calm Calm -- 30.05 in1017.6 mb - 0.00 in0.0 mm 0.00 in0.0 mm
01:15 AM 74.6°F23.7°C 73.1°F22.8°C 95% Calm Calm -- 30.05 in1017.6 mb - 0.00 in0.0 mm 0.00 in0.0 mm
01:30 AM 74.5°F23.6°C 73.0°F22.8°C 95% Calm Calm -- 30.05 in1017.6 mb - 0.00 in0.0 mm 0.00 in0.0 mm
01:45 AM 74.4°F23.6°C 73.2°F22.9°C 96% Calm Calm -- 30.05 in1017.6 mb - 0.00 in0.0 mm 0.00 in0.0 mm
02:00 AM 74.3°F23.5°C 73.1°F22.8°C 96% Calm Calm -- 30.04 in1017.3 mb - 0.00 in0.0 mm 0.00 in0.0 mm
02:15 AM 74.2°F23.4°C 73.0°F22.8°C 96% Calm Calm -- 30.04 in1017.3 mb - 0.00 in0.0 mm 0.00 in0.0 mm
02:30 AM 74.1°F23.4°C 72.9°F22.7°C 96% Calm Calm -- 30.04 in1017.3 mb - 0.00 in0.0 mm 0.00 in0.0 mm
02:45 AM 74.0°F23.3°C 72.8°F22.7°C 96% Calm Calm -- 30.04 in1017.3 mb - 0.00 in0.0 mm 0.00 in0.0 mm
03:00 AM 73.9°F23.3°C 72.7°F22.6°C 96% Calm Calm -- 30.04 in1017.3 mb - 0.00 in0.0 mm 0.00 in0.0 mm
03:15 AM 73.8°F23.2°C 72.6°F22.6°C 96% Calm Calm -- 30.03 in1016.9 mb - 0.00 in0.0 mm 0.00 in0.0 mm
03:30 AM 73.9°F23.3°C 72.7°F22.6°C 96% Calm Calm -- 30.04 in1017.3 mb - 0.00 in0.0 mm 0.00 in0.0 mm
03:45 AM 73.9°F23.3°C 73.0°F22.8°C 97% Calm Calm -- 30.03 in1016.9 mb - 0.00 in0.0 mm 0.00 in0.0 mm
04:00 AM 74.0°F23.3°C 73.1°F22.8°C 97% Calm Calm -- 30.03 in1016.9 mb - 0.00 in0.0 mm 0.00 in0.0 mm
04:15 AM 74.0°F23.3°C 73.1°F22.8°C 97% Calm Calm -- 30.03 in1016.9 mb - 0.00 in0.0 mm 0.00 in0.0 mm
04:30 AM 74.0°F23.3°C 73.1°F22.8°C 97% Calm Calm -- 30.03 in1016.9 mb - 0.00 in0.0 mm 0.00 in0.0 mm
04:45 AM 73.9°F23.3°C 73.0°F22.8°C 97% Calm Calm -- 30.04 in1017.3 mb - 0.00 in0.0 mm 0.00 in0.0 mm
05:00 AM 73.8°F23.2°C 72.9°F22.7°C 97% Calm Calm -- 30.05 in1017.6 mb - 0.00 in0.0 mm 0.00 in0.0 mm
05:15 AM 73.7°F23.2°C 72.8°F22.7°C 97% Calm Calm -- 30.05 in1017.6 mb - 0.00 in0.0 mm 0.00 in0.0 mm
05:30 AM 73.6°F23.1°C 72.7°F22.6°C 97% Calm Calm -- 30.05 in1017.6 mb - 0.00 in0.0 mm 0.00 in0.0 mm
05:45 AM 73.6°F23.1°C 72.7°F22.6°C 97% Calm Calm -- 30.05 in1017.6 mb - 0.00 in0.0 mm 0.00 in0.0 mm
06:00 AM 73.7°F23.2°C 72.8°F22.7°C 97% Calm Calm -- 30.05 in1017.6 mb - 0.00 in0.0 mm 0.00 in0.0 mm
06:15 AM 73.8°F23.2°C 72.9°F22.7°C 97% Calm Calm -- 30.05 in1017.6 mb - 0.00 in0.0 mm 0.00 in0.0 mm
06:30 AM 73.9°F23.3°C 73.0°F22.8°C 97% Calm Calm -- 30.05 in1017.6 mb - 0.00 in0.0 mm 0.00 in0.0 mm
06:45 AM 74.0°F23.3°C 73.1°F22.8°C 97% Calm Calm -- 30.06 in1017.9 mb - 0.00 in0.0 mm 0.00 in0.0 mm
07:00 AM 74.2°F23.4°C 73.3°F22.9°C 97% Calm Calm -- 30.06 in1017.9 mb - 0.03 in0.8 mm 0.03 in0.8 mm
07:15 AM 74.2°F23.4°C 73.3°F22.9°C 97% Calm Calm -- 30.06 in1017.9 mb - 0.00 in0.0 mm 0.03 in0.8 mm
07:30 AM 74.6°F23.7°C 74.0°F23.3°C 98% Calm Calm -- 30.06 in1017.9 mb - 0.00 in0.0 mm 0.03 in0.8 mm
07:45 AM 74.8°F23.8°C 73.9°F23.3°C 97% Calm Calm -- 30.07 in1018.3 mb - 0.01 in0.3 mm 0.04 in1.0 mm
08:00 AM 74.8°F23.8°C 74.2°F23.4°C 98% Calm Calm -- 30.07 in1018.3 mb - 0.02 in0.5 mm 0.06 in1.5 mm
08:15 AM 74.9°F23.8°C 74.3°F23.5°C 98% Calm Calm -- 30.07 in1018.3 mb - 0.00 in0.0 mm 0.06 in1.5 mm
08:30 AM 74.7°F23.7°C 73.8°F23.2°C 97% Calm Calm -- 30.07 in1018.3 mb - 0.00 in0.0 mm 0.06 in1.5 mm
08:45 AM 74.9°F23.8°C 74.0°F23.3°C 97% Calm Calm -- 30.07 in1018.3 mb - 0.00 in0.0 mm 0.06 in1.5 mm
09:00 AM 74.0°F23.3°C 72.8°F22.7°C 96% Calm Calm -- 30.07 in1018.3 mb - 0.04 in1.0 mm 0.10 in2.5 mm
09:15 AM 74.4°F23.6°C 73.5°F23.1°C 97% Calm Calm -- 30.07 in1018.3 mb - 0.00 in0.0 mm 0.10 in2.5 mm
09:30 AM 75.1°F23.9°C 74.2°F23.4°C 97% Calm Calm -- 30.07 in1018.3 mb - 0.00 in0.0 mm 0.10 in2.5 mm
09:45 AM 75.8°F24.3°C 74.3°F23.5°C 95% Calm Calm -- 30.07 in1018.3 mb - 0.00 in0.0 mm 0.10 in2.5 mm
10:00 AM 77.1°F25.1°C 74.9°F23.8°C 93% 1.2 mph SSW1.9 kmh SSW 3.5 mph5.6 kmh 30.07 in1018.3 mb - 0.00 in0.0 mm 0.10 in2.5 mm
10:15 AM 77.9°F25.5°C 75.1°F23.9°C 91% 1.2 mph SW1.9 kmh SW 3.5 mph5.6 kmh 30.07 in1018.3 mb - 0.01 in0.3 mm 0.11 in2.8 mm
10:30 AM 77.7°F25.4°C 74.2°F23.4°C 89% Calm Calm -- 30.07 in1018.3 mb - 0.00 in0.0 mm 0.11 in2.8 mm
10:45 AM 78.6°F25.9°C 74.4°F23.6°C 87% Calm Calm -- 30.07 in1018.3 mb - 0.00 in0.0 mm 0.11 in2.8 mm
11:00 AM 78.8°F26.0°C 75.0°F23.9°C 88% Calm Calm -- 30.07 in1018.3 mb - 0.00 in0.0 mm 0.11 in2.8 mm
11:15 AM 79.4°F26.3°C 74.5°F23.6°C 85% Calm Calm -- 30.06 in1017.9 mb - 0.00 in0.0 mm 0.11 in2.8 mm
11:30 AM 79.4°F26.3°C 74.5°F23.6°C 85% Calm Calm 2.3 mph3.7 kmh 30.06 in1017.9 mb - 0.00 in0.0 mm 0.11 in2.8 mm
11:45 AM 79.3°F26.3°C 74.0°F23.3°C 84% Calm Calm -- 30.05 in1017.6 mb - 0.00 in0.0 mm 0.11 in2.8 mm
12:00 PM 81.9°F27.7°C 76.2°F24.6°C 83% Calm Calm 3.5 mph5.6 kmh 30.05 in1017.6 mb - 0.00 in0.0 mm 0.11 in2.8 mm
12:15 PM 82.1°F27.8°C 75.7°F24.3°C 81% 2.3 mph S3.7 kmh S 3.5 mph5.6 kmh 30.04 in1017.3 mb - 0.00 in0.0 mm 0.11 in2.8 mm
12:30 PM 79.8°F26.6°C 74.5°F23.6°C 84% 2.3 mph NW3.7 kmh NW 3.5 mph5.6 kmh 30.04 in1017.3 mb - 0.00 in0.0 mm 0.11 in2.8 mm
12:45 PM 82.7°F28.2°C 76.7°F24.8°C 82% Calm Calm 2.3 mph3.7 kmh 30.04 in1017.3 mb - 0.00 in0.0 mm 0.11 in2.8 mm
01:00 PM 81.9°F27.7°C 75.5°F24.2°C 81% 3.5 mph SSE5.6 kmh SSE 3.5 mph5.6 kmh 30.03 in1016.9 mb - 0.00 in0.0 mm 0.11 in2.8 mm
01:15 PM 84.8°F29.3°C 75.9°F24.4°C 75% 3.5 mph S5.6 kmh S 6.9 mph11.1 kmh 30.02 in1016.6 mb - 0.00 in0.0 mm 0.11 in2.8 mm
01:30 PM 83.1°F28.4°C 75.9°F24.4°C 79% Calm Calm -- 30.02 in1016.6 mb - 0.00 in0.0 mm 0.11 in2.8 mm
01:45 PM 84.7°F29.3°C 75.9°F24.4°C 75% 3.5 mph S5.6 kmh S 3.5 mph5.6 kmh 30.01 in1016.3 mb - 0.00 in0.0 mm 0.11 in2.8 mm
02:00 PM 85.9°F29.9°C 76.3°F24.6°C 73% 1.2 mph S1.9 kmh S 2.3 mph3.7 kmh 30.00 in1015.9 mb - 0.00 in0.0 mm 0.11 in2.8 mm
02:15 PM 84.6°F29.2°C 75.7°F24.3°C 75% 1.2 mph SSE1.9 kmh SSE 3.5 mph5.6 kmh 29.99 in1015.6 mb - 0.00 in0.0 mm 0.11 in2.8 mm
02:30 PM 85.7°F29.8°C 76.8°F24.9°C 75% 4.6 mph S7.4 kmh S 5.8 mph9.3 kmh 29.99 in1015.6 mb - 0.00 in0.0 mm 0.11 in2.8 mm
02:45 PM 86.4°F30.2°C 76.3°F24.6°C 72% 1.2 mph NNW1.9 kmh NNW 3.5 mph5.6 kmh 29.98 in1015.2 mb - 0.00 in0.0 mm 0.11 in2.8 mm
03:00 PM 85.6°F29.8°C 76.8°F24.9°C 75% Calm Calm 3.5 mph5.6 kmh 29.98 in1015.2 mb - 0.00 in0.0 mm 0.11 in2.8 mm
03:15 PM 85.2°F29.6°C 76.0°F24.4°C 74% 1.2 mph W1.9 kmh W 2.3 mph3.7 kmh 29.98 in1015.2 mb - 0.00 in0.0 mm 0.11 in2.8 mm
03:30 PM 86.8°F30.4°C 76.3°F24.6°C 71% 2.3 mph SSW3.7 kmh SSW 5.8 mph9.3 kmh 29.97 in1014.9 mb - 0.00 in0.0 mm 0.11 in2.8 mm
03:45 PM 86.1°F30.1°C 76.4°F24.7°C 73% 1.2 mph SSW1.9 kmh SSW 1.2 mph1.9 kmh 29.97 in1014.9 mb - 0.00 in0.0 mm 0.11 in2.8 mm
04:00 PM 85.8°F29.9°C 76.5°F24.7°C 74% 3.5 mph S5.6 kmh S 5.8 mph9.3 kmh 29.97 in1014.9 mb - 0.00 in0.0 mm 0.11 in2.8 mm
04:15 PM 85.1°F29.5°C 75.9°F24.4°C 74% Calm Calm -- 29.97 in1014.9 mb - 0.00 in0.0 mm 0.11 in2.8 mm
04:30 PM 85.8°F29.9°C 76.1°F24.5°C 73% 2.3 mph SSW3.7 kmh SSW 3.5 mph5.6 kmh 29.97 in1014.9 mb - 0.00 in0.0 mm 0.11 in2.8 mm
04:45 PM 85.3°F29.6°C 76.5°F24.7°C 75% 2.3 mph S3.7 kmh S 6.9 mph11.1 kmh 29.97 in1014.9 mb - 0.00 in0.0 mm 0.11 in2.8 mm
05:00 PM 85.2°F29.6°C 76.4°F24.7°C 75% 2.3 mph S3.7 kmh S 3.5 mph5.6 kmh 29.97 in1014.9 mb - 0.00 in0.0 mm 0.11 in2.8 mm
05:15 PM 85.0°F29.4°C 77.0°F25.0°C 77% 2.3 mph S3.7 kmh S 3.5 mph5.6 kmh 29.97 in1014.9 mb - 0.00 in0.0 mm 0.11 in2.8 mm
05:30 PM 84.5°F29.2°C 76.5°F24.7°C 77% 1.2 mph SW1.9 kmh SW 3.5 mph5.6 kmh 29.97 in1014.9 mb - 0.00 in0.0 mm 0.11 in2.8 mm
05:45 PM 83.7°F28.7°C 77.6°F25.3°C 82% 4.6 mph SSE7.4 kmh SSE 6.9 mph11.1 kmh 29.96 in1014.6 mb - 0.00 in0.0 mm 0.11 in2.8 mm
06:00 PM 82.3°F27.9°C 76.6°F24.8°C 83% 3.5 mph SSW5.6 kmh SSW 3.5 mph5.6 kmh 29.97 in1014.9 mb - 0.00 in0.0 mm 0.11 in2.8 mm
06:15 PM 81.7°F27.6°C 76.7°F24.8°C 85% 2.3 mph S3.7 kmh S 4.6 mph7.4 kmh 29.97 in1014.9 mb - 0.00 in0.0 mm 0.11 in2.8 mm
06:30 PM 81.4°F27.4°C 76.8°F24.9°C 86% Calm Calm 3.5 mph5.6 kmh 29.97 in1014.9 mb - 0.00 in0.0 mm 0.11 in2.8 mm
06:45 PM 81.0°F27.2°C 76.8°F24.9°C 87% 3.5 mph S5.6 kmh S 3.5 mph5.6 kmh 29.97 in1014.9 mb - 0.00 in0.0 mm 0.11 in2.8 mm
07:00 PM 80.4°F26.9°C 76.6°F24.8°C 88% Calm Calm 3.5 mph5.6 kmh 29.98 in1015.2 mb - 0.00 in0.0 mm 0.11 in2.8 mm
07:15 PM 79.9°F26.6°C 76.4°F24.7°C 89% 1.2 mph S1.9 kmh S 3.5 mph5.6 kmh 29.97 in1014.9 mb - 0.00 in0.0 mm 0.11 in2.8 mm
07:30 PM 79.3°F26.3°C 76.1°F24.5°C 90% Calm Calm 2.3 mph3.7 kmh 29.98 in1015.2 mb - 0.00 in0.0 mm 0.11 in2.8 mm
07:45 PM 79.0°F26.1°C 76.5°F24.7°C 92% Calm Calm -- 29.99 in1015.6 mb - 0.00 in0.0 mm 0.11 in2.8 mm
08:00 PM 78.7°F25.9°C 76.2°F24.6°C 92% Calm Calm -- 29.99 in1015.6 mb - 0.00 in0.0 mm 0.11 in2.8 mm
08:15 PM 78.5°F25.8°C 76.3°F24.6°C 93% Calm Calm 2.3 mph3.7 kmh 29.99 in1015.6 mb - 0.00 in0.0 mm 0.11 in2.8 mm
08:30 PM 78.5°F25.8°C 76.3°F24.6°C 93% Calm Calm 1.2 mph1.9 kmh 30.00 in1015.9 mb - 0.00 in0.0 mm 0.11 in2.8 mm
08:45 PM 78.5°F25.8°C 76.3°F24.6°C 93% Calm Calm 1.2 mph1.9 kmh 30.00 in1015.9 mb - 0.00 in0.0 mm 0.11 in2.8 mm
09:00 PM 78.6°F25.9°C 76.4°F24.7°C 93% Calm Calm 3.5 mph5.6 kmh 30.01 in1016.3 mb - 0.00 in0.0 mm 0.11 in2.8 mm
09:15 PM 78.7°F25.9°C 76.5°F24.7°C 93% Calm Calm -- 30.01 in1016.3 mb - 0.00 in0.0 mm 0.11 in2.8 mm
09:30 PM 78.7°F25.9°C 76.5°F24.7°C 93% Calm Calm -- 30.01 in1016.3 mb - 0.00 in0.0 mm 0.11 in2.8 mm
09:45 PM 78.8°F26.0°C 76.3°F24.6°C 92% Calm Calm -- 30.00 in1015.9 mb - 0.00 in0.0 mm 0.11 in2.8 mm
10:00 PM 78.9°F26.1°C 75.7°F24.3°C 90% Calm Calm -- 30.00 in1015.9 mb - 0.00 in0.0 mm 0.11 in2.8 mm
10:15 PM 79.0°F26.1°C 75.5°F24.2°C 89% Calm Calm -- 30.00 in1015.9 mb - 0.00 in0.0 mm 0.11 in2.8 mm
10:30 PM 78.7°F25.9°C 75.1°F23.9°C 89% Calm Calm -- 30.00 in1015.9 mb - 0.00 in0.0 mm 0.11 in2.8 mm
10:45 PM 78.4°F25.8°C 74.5°F23.6°C 88% Calm Calm 4.6 mph7.4 kmh 30.00 in1015.9 mb - 0.00 in0.0 mm 0.11 in2.8 mm
11:00 PM 77.9°F25.5°C 73.7°F23.2°C 87% Calm Calm -- 30.00 in1015.9 mb - 0.00 in0.0 mm 0.11 in2.8 mm
11:15 PM 77.4°F25.2°C 73.6°F23.1°C 88% Calm Calm -- 30.01 in1016.3 mb - 0.00 in0.0 mm 0.11 in2.8 mm
11:30 PM 77.1°F25.1°C 73.6°F23.1°C 89% Calm Calm -- 30.00 in1015.9 mb - 0.00 in0.0 mm 0.11 in2.8 mm
11:45 PM 76.8°F24.9°C 73.6°F23.1°C 90% Calm Calm -- 30.01 in1016.3 mb - 0.00 in0.0 mm 0.11 in2.8 mm